createdAt,value
2022-08-16T00:00:03.740Z,57.56
2022-08-16T00:02:33.277Z,57.35
2022-08-16T00:05:01.718Z,56.69
2022-08-16T00:07:30.182Z,58.02
2022-08-16T00:10:00.846Z,56.53
2022-08-16T00:12:31.901Z,57.82
2022-08-16T00:15:02.711Z,56.98
2022-08-16T00:17:56.069Z,56.78
2022-08-16T00:20:20.986Z,59.38
2022-08-16T00:22:51.834Z,59.84
2022-08-16T00:26:33.652Z,59.37
2022-08-16T00:28:12.202Z,59.16
2022-08-16T00:30:40.728Z,59.29
2022-08-16T00:33:10.152Z,59.01
2022-08-16T00:35:39.566Z,57.85
2022-08-16T00:38:40.205Z,55.98
2022-08-16T00:41:00.668Z,55.96
2022-08-16T00:43:42.914Z,54.98
2022-08-16T00:46:33.118Z,57.54
2022-08-16T00:49:04.770Z,60.24
2022-08-16T00:51:33.709Z,61.33
2022-08-16T00:54:02.595Z,61.39
2022-08-16T00:56:57.113Z,61.29
2022-08-16T00:59:27.529Z,62.04
2022-08-16T01:01:56.833Z,62.60
2022-08-16T01:04:30.825Z,63.32
2022-08-16T01:07:07.124Z,63.49
2022-08-16T01:09:42.782Z,62.92
2022-08-16T01:12:26.625Z,61.36
2022-08-16T01:14:57.962Z,61.21
2022-08-16T01:17:27.891Z,60.85
2022-08-16T01:20:11.665Z,60.47
2022-08-16T01:22:59.711Z,61.33
2022-08-16T01:25:36.435Z,61.85
2022-08-16T01:28:09.135Z,61.78
2022-08-16T01:30:49.775Z,61.67
2022-08-16T01:33:22.413Z,61.98
2022-08-16T01:35:56.499Z,60.38
2022-08-16T01:38:28.759Z,61.47
2022-08-16T01:41:03.597Z,59.44
2022-08-16T01:43:34.541Z,61.68
2022-08-16T01:46:29.563Z,60.52
2022-08-16T01:49:10.300Z,59.32
2022-08-16T01:51:40.832Z,58.60
2022-08-16T01:54:30.578Z,59.73
2022-08-16T01:57:02.266Z,60.27
2022-08-16T01:59:36.701Z,61.62
2022-08-16T02:02:27.025Z,62.03
2022-08-16T02:04:55.625Z,62.65
2022-08-16T02:07:27.147Z,62.66
2022-08-16T02:09:57.220Z,62.96
2022-08-16T02:12:49.589Z,62.58
2022-08-16T02:15:25.049Z,62.39
2022-08-16T02:17:54.966Z,62.10
2022-08-16T02:20:26.233Z,62.69
2022-08-16T02:23:01.814Z,62.60
2022-08-16T02:25:52.377Z,63.74
2022-08-16T02:28:26.209Z,62.69
2022-08-16T02:30:57.193Z,62.70
2022-08-16T02:33:42.867Z,63.37
2022-08-16T02:36:48.138Z,62.78
2022-08-16T02:39:14.855Z,62.00
2022-08-16T02:41:45.649Z,61.48
2022-08-16T02:44:26.835Z,62.84
2022-08-16T02:46:57.641Z,62.82
2022-08-16T02:49:57.974Z,65.03
2022-08-16T02:52:24.856Z,64.15
2022-08-16T02:55:01.212Z,64.41
2022-08-16T02:57:31.167Z,65.75
2022-08-16T03:00:01.378Z,65.83
2022-08-16T03:02:55.788Z,66.56
2022-08-16T03:05:26.517Z,66.45
2022-08-16T03:08:00.230Z,65.75
2022-08-16T03:10:33.526Z,65.62
2022-08-16T03:13:04.197Z,62.60
2022-08-16T03:15:42.364Z,61.89
2022-08-16T03:18:12.665Z,63.60
2022-08-16T03:20:55.785Z,64.20
2022-08-16T03:23:24.819Z,65.27
2022-08-16T03:25:53.897Z,65.89
2022-08-16T03:28:21.995Z,65.68
2022-08-16T03:30:52.332Z,68.14
2022-08-16T03:33:23.939Z,68.49
2022-08-16T03:35:59.401Z,69.63
2022-08-16T03:38:49.250Z,68.77
2022-08-16T03:41:25.194Z,68.25
2022-08-16T03:43:59.856Z,68.76
2022-08-16T03:46:47.826Z,68.12
2022-08-16T03:49:22.595Z,69.08
2022-08-16T03:51:54.522Z,68.46
2022-08-16T03:54:28.467Z,68.80
2022-08-16T03:56:58.650Z,69.05
2022-08-16T03:59:32.395Z,68.88
2022-08-16T04:02:12.078Z,68.03
2022-08-16T04:04:51.073Z,67.33
2022-08-16T04:07:22.203Z,64.85
2022-08-16T04:09:53.546Z,63.16
2022-08-16T04:12:54.693Z,62.85
2022-08-16T04:15:16.979Z,63.86
2022-08-16T04:18:02.637Z,65.33
2022-08-16T04:20:36.781Z,66.06
2022-08-16T04:23:09.194Z,66.60
2022-08-16T04:25:41.061Z,66.61
2022-08-16T04:28:54.472Z,66.68
2022-08-16T04:30:59.921Z,67.71
2022-08-16T04:33:30.314Z,66.86
2022-08-16T04:36:03.906Z,67.92
2022-08-16T04:38:33.289Z,67.64
2022-08-16T04:41:01.450Z,65.35
2022-08-16T04:43:31.333Z,66.67
2022-08-16T04:46:03.067Z,67.52
2022-08-16T04:48:38.633Z,65.82
2022-08-16T04:51:12.738Z,64.73
2022-08-16T04:53:46.581Z,64.92
2022-08-16T04:56:17.001Z,65.52
2022-08-16T04:58:46.843Z,66.03
2022-08-16T05:01:19.887Z,66.50
2022-08-16T05:04:00.336Z,67.59
2022-08-16T05:06:44.928Z,66.59
2022-08-16T05:09:24.788Z,67.53
2022-08-16T05:11:57.841Z,68.77
2022-08-16T05:14:45.809Z,68.10
2022-08-16T05:17:19.889Z,69.04
2022-08-16T05:19:57.472Z,68.10
2022-08-16T05:22:35.833Z,67.59
2022-08-16T05:25:09.039Z,67.29
2022-08-16T05:27:42.753Z,66.85
2022-08-16T05:30:34.935Z,65.99
2022-08-16T05:33:05.635Z,66.18
2022-08-16T05:35:39.031Z,66.31
2022-08-16T05:38:33.080Z,67.13
2022-08-16T05:41:09.491Z,66.25
2022-08-16T05:43:42.897Z,67.06
2022-08-16T05:46:29.056Z,67.29
2022-08-16T05:49:05.928Z,67.17
2022-08-16T05:51:41.781Z,67.65
2022-08-16T05:54:17.365Z,67.60
2022-08-16T05:56:56.000Z,67.77
2022-08-16T05:59:26.932Z,68.66
2022-08-16T06:01:57.305Z,68.38
2022-08-16T06:04:36.044Z,69.08
2022-08-16T06:07:24.276Z,67.96
2022-08-16T06:10:33.129Z,67.86
2022-08-16T06:13:04.959Z,69.43
2022-08-16T06:15:34.550Z,67.96
2022-08-16T06:18:04.843Z,68.63
2022-08-16T06:20:35.048Z,68.33
2022-08-16T06:23:17.636Z,67.63
2022-08-16T06:25:58.974Z,67.31
2022-08-16T06:28:35.905Z,66.94
2022-08-16T06:31:12.032Z,66.73
2022-08-16T06:33:44.652Z,66.37
2022-08-16T06:36:16.603Z,66.01
2022-08-16T06:38:56.985Z,64.62
2022-08-16T06:41:54.111Z,65.53
2022-08-16T06:44:51.677Z,65.88
2022-08-16T06:47:53.906Z,65.20
2022-08-16T06:50:28.529Z,64.26
2022-08-16T06:53:06.697Z,63.04
2022-08-16T06:55:40.322Z,63.02
2022-08-16T06:58:22.174Z,63.33
2022-08-16T07:01:00.110Z,59.50
2022-08-16T07:03:32.258Z,59.72
2022-08-16T07:06:04.262Z,60.32
2022-08-16T07:08:42.507Z,60.82
2022-08-16T07:11:12.676Z,60.10
2022-08-16T07:14:00.680Z,59.38
2022-08-16T07:16:42.086Z,59.35
2022-08-16T07:19:16.855Z,59.22
2022-08-16T07:21:59.390Z,58.88
2022-08-16T07:24:31.116Z,58.79
2022-08-16T07:27:08.397Z,58.85
2022-08-16T07:29:40.250Z,56.33
2022-08-16T07:32:11.834Z,56.88
2022-08-16T07:34:48.401Z,53.11
2022-08-16T07:37:19.005Z,52.90
2022-08-16T07:40:13.198Z,51.54
2022-08-16T07:42:46.693Z,49.89
2022-08-16T07:45:16.973Z,50.64
2022-08-16T07:47:51.162Z,49.38
2022-08-16T07:50:56.999Z,49.99
2022-08-16T07:53:09.963Z,49.69
2022-08-16T07:55:47.820Z,48.26
2022-08-16T07:58:34.444Z,47.83
2022-08-16T08:01:10.477Z,47.80
2022-08-16T08:03:48.896Z,46.56
2022-08-16T08:06:24.996Z,47.47
2022-08-16T08:08:57.179Z,46.65
2022-08-16T08:11:28.753Z,46.94
2022-08-16T08:14:03.213Z,44.64
2022-08-16T08:16:35.711Z,44.45
2022-08-16T08:19:12.499Z,44.01
2022-08-16T08:22:00.585Z,44.63
2022-08-16T08:24:46.881Z,44.13
2022-08-16T08:27:23.226Z,44.81
2022-08-16T08:30:49.430Z,44.61
2022-08-16T08:32:58.045Z,43.93
2022-08-16T08:35:34.428Z,44.16
2022-08-16T08:38:06.283Z,43.60
2022-08-16T08:40:35.762Z,43.00
2022-08-16T08:43:11.675Z,42.52
2022-08-16T08:45:49.310Z,42.10
2022-08-16T08:48:34.652Z,42.43
2022-08-16T08:51:11.291Z,41.75
2022-08-16T08:54:09.709Z,41.20
2022-08-16T08:56:45.769Z,41.71
2022-08-16T08:59:28.145Z,41.26
2022-08-16T09:01:59.726Z,39.63
2022-08-16T09:04:32.652Z,41.30
2022-08-16T09:07:04.634Z,41.45
2022-08-16T09:09:37.801Z,41.61
2022-08-16T09:12:35.718Z,42.07
2022-08-16T09:15:23.867Z,41.05
2022-08-16T09:17:56.970Z,40.95
2022-08-16T09:20:30.260Z,39.43
2022-08-16T09:22:59.457Z,40.41
2022-08-16T09:25:34.184Z,40.05
2022-08-16T09:28:10.647Z,40.39
2022-08-16T09:30:53.520Z,39.06
2022-08-16T09:33:23.209Z,40.31
2022-08-16T09:35:53.326Z,39.58
2022-08-16T09:38:32.217Z,40.12
2022-08-16T09:41:02.129Z,39.16
2022-08-16T09:43:58.193Z,38.92
2022-08-16T09:46:44.418Z,37.78
2022-08-16T09:49:12.579Z,37.86
2022-08-16T09:51:41.092Z,38.37
2022-08-16T09:54:16.757Z,37.83
2022-08-16T09:56:51.364Z,35.83
2022-08-16T09:59:23.337Z,35.27
2022-08-16T10:01:54.665Z,36.36
2022-08-16T10:04:30.310Z,36.29
2022-08-16T10:07:15.575Z,35.35
2022-08-16T10:09:54.969Z,35.21
2022-08-16T10:12:45.375Z,35.62
2022-08-16T10:15:17.103Z,35.22
2022-08-16T10:18:00.186Z,36.27
2022-08-16T10:20:34.873Z,35.27
2022-08-16T10:23:07.962Z,34.44
2022-08-16T10:27:18.753Z,35.04
2022-08-16T10:28:32.178Z,35.48
2022-08-16T10:31:06.683Z,34.43
2022-08-16T10:33:40.288Z,34.15
2022-08-16T10:36:12.465Z,34.14
2022-08-16T10:39:00.687Z,32.84
2022-08-16T10:41:29.056Z,33.72
2022-08-16T10:43:58.460Z,34.23
2022-08-16T10:46:40.041Z,33.99
2022-08-16T10:49:11.563Z,33.07
2022-08-16T10:52:01.660Z,33.23
2022-08-16T10:54:30.570Z,33.45
2022-08-16T10:56:59.594Z,32.51
2022-08-16T10:59:38.139Z,31.67
2022-08-16T11:03:00.775Z,33.01
2022-08-16T11:05:09.578Z,30.97
2022-08-16T11:07:43.802Z,32.24
2022-08-16T11:10:20.470Z,31.82
2022-08-16T11:12:52.756Z,31.09
2022-08-16T11:15:21.737Z,30.88
2022-08-16T11:20:48.794Z,31.35
2022-08-16T11:23:20.027Z,30.96
2022-08-16T11:26:20.667Z,31.53
2022-08-16T11:29:12.649Z,30.67
2022-08-16T11:31:25.700Z,30.17
2022-08-16T11:33:55.180Z,31.40
2022-08-16T11:36:27.966Z,30.22
2022-08-16T11:38:58.919Z,30.50
2022-08-16T11:41:29.489Z,27.40
2022-08-16T11:44:02.045Z,28.73
2022-08-16T11:46:44.794Z,29.14
2022-08-16T11:49:14.885Z,29.87
2022-08-16T11:51:45.555Z,30.76
2022-08-16T11:54:21.757Z,31.02
2022-08-16T11:56:57.583Z,30.09
2022-08-16T11:59:31.115Z,30.60
2022-08-16T12:02:04.424Z,31.56
2022-08-16T12:04:52.080Z,31.21
2022-08-16T12:07:23.577Z,34.06
2022-08-16T12:09:54.223Z,36.01
2022-08-16T12:12:28.523Z,36.71
2022-08-16T12:15:00.205Z,37.12
2022-08-16T12:17:31.975Z,37.02
2022-08-16T12:20:01.073Z,36.60
2022-08-16T12:22:30.072Z,35.77
2022-08-16T12:25:03.893Z,34.83
2022-08-16T12:27:33.167Z,35.15
2022-08-16T12:30:02.245Z,34.10
2022-08-16T12:32:38.207Z,35.06
2022-08-16T12:35:13.076Z,34.59
2022-08-16T12:37:42.337Z,34.46
2022-08-16T12:40:24.724Z,35.13
2022-08-16T12:42:58.566Z,36.62
2022-08-16T12:45:29.443Z,36.56
2022-08-16T12:48:32.578Z,37.11
2022-08-16T12:51:03.730Z,38.05
2022-08-16T12:53:34.422Z,37.83
2022-08-16T12:56:11.684Z,37.73
2022-08-16T12:58:50.549Z,38.13
2022-08-16T13:01:19.862Z,38.24
2022-08-16T13:04:08.247Z,38.88
2022-08-16T13:06:41.150Z,38.90
2022-08-16T13:09:26.465Z,39.29
2022-08-16T13:12:03.361Z,39.18
2022-08-16T13:14:34.737Z,35.83
2022-08-16T13:17:06.760Z,34.77
2022-08-16T13:20:03.796Z,35.83
2022-08-16T13:22:28.171Z,32.84
2022-08-16T13:24:56.400Z,31.85
2022-08-16T13:28:03.338Z,31.85
2022-08-16T13:30:36.600Z,31.30
2022-08-16T13:33:11.348Z,31.37
2022-08-16T13:35:42.730Z,30.49
2022-08-16T13:38:25.106Z,31.72
2022-08-16T13:40:55.863Z,30.84
2022-08-16T13:43:27.319Z,31.72
2022-08-16T13:45:56.396Z,31.72
2022-08-16T13:48:26.162Z,31.24
2022-08-16T13:50:55.125Z,31.15
2022-08-16T13:53:27.392Z,30.44
2022-08-16T13:55:59.244Z,30.56
2022-08-16T13:58:35.167Z,31.47
2022-08-16T14:01:04.518Z,32.85
2022-08-16T14:03:39.301Z,32.77
2022-08-16T14:06:10.915Z,32.24
2022-08-16T14:08:42.391Z,33.34
2022-08-16T14:11:12.701Z,34.19
2022-08-16T14:13:45.051Z,32.01
2022-08-16T14:16:24.617Z,32.06
2022-08-16T14:19:02.518Z,34.18
2022-08-16T14:21:35.471Z,35.15
2022-08-16T14:24:08.162Z,35.29
2022-08-16T14:26:51.210Z,38.51
2022-08-16T14:29:23.002Z,39.68
2022-08-16T14:31:53.842Z,42.90
2022-08-16T14:34:25.710Z,44.75
2022-08-16T14:36:57.543Z,42.92
2022-08-16T14:39:32.318Z,43.54
2022-08-16T14:42:12.161Z,43.42
2022-08-16T14:44:43.147Z,38.56
2022-08-16T14:47:12.028Z,38.26
2022-08-16T14:49:40.781Z,36.48
2022-08-16T14:52:13.109Z,38.33
2022-08-16T14:54:44.186Z,38.93
2022-08-16T14:57:14.080Z,40.99
2022-08-16T14:59:46.148Z,44.66
2022-08-16T15:02:17.008Z,46.18
2022-08-16T15:05:04.388Z,49.59
2022-08-16T15:07:35.125Z,49.34
2022-08-16T15:10:05.695Z,47.52
2022-08-16T15:12:36.386Z,44.96
2022-08-16T15:15:12.962Z,42.93
2022-08-16T15:17:55.998Z,42.58
2022-08-16T15:20:29.137Z,42.63
2022-08-16T15:23:01.001Z,41.96
2022-08-16T15:25:32.332Z,42.15
2022-08-16T15:28:04.770Z,39.03
2022-08-16T15:30:56.739Z,40.24
2022-08-16T15:33:27.014Z,37.83
2022-08-16T15:35:58.083Z,36.60
2022-08-16T15:38:56.783Z,38.20
2022-08-16T15:41:34.361Z,36.98
2022-08-16T15:44:10.263Z,36.45
2022-08-16T15:46:56.581Z,36.73
2022-08-16T15:49:37.961Z,36.42
2022-08-16T15:52:16.241Z,36.85
2022-08-16T15:54:53.588Z,36.30
2022-08-16T15:57:30.327Z,36.27
2022-08-16T16:00:14.547Z,36.15
2022-08-16T16:02:47.027Z,34.91
2022-08-16T16:05:19.648Z,34.73
2022-08-16T16:07:56.306Z,33.94
2022-08-16T16:10:39.418Z,34.24
2022-08-16T16:13:08.894Z,33.63
2022-08-16T16:15:40.145Z,33.77
2022-08-16T16:18:12.771Z,33.62
2022-08-16T16:20:43.854Z,33.54
2022-08-16T16:23:12.321Z,33.64
2022-08-16T16:25:43.843Z,33.70
2022-08-16T16:28:45.970Z,33.26
2022-08-16T16:31:02.342Z,32.92
2022-08-16T16:33:34.152Z,33.10
2022-08-16T16:36:06.858Z,33.64
2022-08-16T16:38:35.347Z,34.35
2022-08-16T16:41:09.290Z,33.81
2022-08-16T16:43:40.746Z,34.27
2022-08-16T16:46:32.806Z,34.24
2022-08-16T16:49:00.507Z,34.15
2022-08-16T16:51:32.246Z,33.89
2022-08-16T16:54:12.972Z,33.62
2022-08-16T16:56:49.709Z,33.94
2022-08-16T16:59:18.807Z,34.46
2022-08-16T17:01:59.168Z,34.69
2022-08-16T17:04:39.421Z,34.59
2022-08-16T17:07:12.458Z,35.00
2022-08-16T17:09:41.587Z,35.22
2022-08-16T17:12:18.798Z,34.70
2022-08-16T17:14:53.318Z,35.33
2022-08-16T17:17:21.883Z,34.77
2022-08-16T17:19:51.711Z,34.43
2022-08-16T17:22:22.027Z,34.92
2022-08-16T17:24:53.316Z,34.81
2022-08-16T17:27:33.104Z,35.16
2022-08-16T17:30:19.839Z,35.12
2022-08-16T17:32:54.640Z,35.50
2022-08-16T17:35:33.816Z,35.62
2022-08-16T17:38:04.919Z,35.92
2022-08-16T17:40:46.766Z,36.06
2022-08-16T17:43:19.344Z,36.48
2022-08-16T17:45:48.815Z,36.10
2022-08-16T17:48:17.104Z,36.57
2022-08-16T17:50:47.105Z,36.61
2022-08-16T17:53:17.509Z,36.54
2022-08-16T17:55:50.674Z,36.81
2022-08-16T17:58:23.492Z,37.84
2022-08-16T18:00:54.562Z,37.78
2022-08-16T18:04:02.441Z,38.10
2022-08-16T18:06:17.859Z,38.25
2022-08-16T18:08:49.036Z,38.41
2022-08-16T18:11:25.879Z,38.62
2022-08-16T18:13:55.593Z,39.29
2022-08-16T18:16:24.613Z,40.58
2022-08-16T18:18:52.885Z,41.66
2022-08-16T18:21:44.766Z,41.50
2022-08-16T18:24:16.225Z,42.18
2022-08-16T18:26:44.547Z,42.42
2022-08-16T18:29:13.863Z,42.31
2022-08-16T18:31:42.101Z,42.28
2022-08-16T18:34:10.875Z,42.77
2022-08-16T18:36:41.209Z,43.34
2022-08-16T18:39:10.417Z,43.15
2022-08-16T18:41:38.612Z,43.70
2022-08-16T18:44:26.132Z,44.54
2022-08-16T18:46:56.440Z,44.46
2022-08-16T18:49:24.793Z,44.55
2022-08-16T18:51:59.067Z,43.86
2022-08-16T18:54:28.260Z,46.03
2022-08-16T18:56:58.339Z,49.18
2022-08-16T18:59:33.208Z,49.02
2022-08-16T19:02:05.197Z,47.65
2022-08-16T19:04:56.877Z,46.96
2022-08-16T19:07:31.367Z,46.69
2022-08-16T19:10:01.388Z,47.27
2022-08-16T19:12:38.523Z,48.98
2022-08-16T19:15:15.942Z,48.97
2022-08-16T19:17:45.374Z,49.99
2022-08-16T19:20:19.156Z,50.74
2022-08-16T19:23:10.193Z,50.68
2022-08-16T19:25:47.988Z,50.11
2022-08-16T19:28:50.503Z,49.96
2022-08-16T19:31:12.517Z,51.04
2022-08-16T19:33:53.320Z,51.35
2022-08-16T19:36:31.021Z,50.82
2022-08-16T19:39:05.325Z,50.25
2022-08-16T19:41:35.353Z,48.75
2022-08-16T19:44:03.996Z,49.61
2022-08-16T19:46:32.371Z,50.55
2022-08-16T19:49:02.819Z,52.45
2022-08-16T19:51:31.404Z,54.13
2022-08-16T19:53:59.782Z,58.17
2022-08-16T19:56:29.577Z,56.98
2022-08-16T20:01:46.444Z,57.18
2022-08-16T20:04:14.834Z,56.32
2022-08-16T20:06:43.625Z,57.34
2022-08-16T20:09:15.421Z,56.88
2022-08-16T20:11:47.052Z,53.78
2022-08-16T20:14:24.345Z,53.85
2022-08-16T20:16:55.687Z,56.86
2022-08-16T20:19:24.249Z,57.85
2022-08-16T20:21:52.607Z,58.41
2022-08-16T20:24:36.797Z,58.05
2022-08-16T20:27:09.517Z,55.66
2022-08-16T20:29:39.042Z,56.01
2022-08-16T20:32:09.287Z,58.29
2022-08-16T20:34:37.651Z,59.72
2022-08-16T20:37:06.838Z,60.31
2022-08-16T20:39:35.354Z,59.67
2022-08-16T20:42:03.665Z,59.79
2022-08-16T20:44:37.212Z,60.64
2022-08-16T20:47:05.558Z,60.66
2022-08-16T20:49:33.949Z,60.27
2022-08-16T20:52:02.444Z,59.73
2022-08-16T20:54:30.958Z,59.15
2022-08-16T20:56:59.213Z,59.26
2022-08-16T20:59:27.786Z,59.02
2022-08-16T21:01:58.014Z,59.95
2022-08-16T21:04:28.780Z,59.85
2022-08-16T21:06:58.667Z,60.24
2022-08-16T21:09:28.884Z,59.73
2022-08-16T21:11:59.010Z,59.28
2022-08-16T21:14:27.532Z,59.44
2022-08-16T21:17:00.105Z,59.43
2022-08-16T21:19:28.767Z,56.33
2022-08-16T21:21:57.698Z,55.93
2022-08-16T21:24:26.433Z,55.07
2022-08-16T21:26:55.917Z,55.41
2022-08-16T21:29:39.866Z,58.78
2022-08-16T21:32:14.906Z,59.46
2022-08-16T21:34:43.795Z,61.99
2022-08-16T21:37:15.449Z,62.39
2022-08-16T21:39:44.614Z,62.06
2022-08-16T21:42:15.489Z,61.18
2022-08-16T21:44:43.762Z,62.46
2022-08-16T21:47:13.321Z,61.42
2022-08-16T21:49:41.367Z,62.43
2022-08-16T21:52:26.102Z,62.19
2022-08-16T21:54:56.952Z,64.12
2022-08-16T21:57:25.478Z,63.87
2022-08-16T21:59:55.354Z,63.33
2022-08-16T22:02:35.724Z,62.53
2022-08-16T22:05:07.768Z,62.86
2022-08-16T22:07:36.199Z,63.04
2022-08-16T22:11:04.406Z,63.53
2022-08-16T22:12:58.517Z,64.79
2022-08-16T22:15:27.543Z,65.54
2022-08-16T22:17:59.820Z,64.59
2022-08-16T22:20:29.699Z,65.24
2022-08-16T22:23:06.670Z,66.40
2022-08-16T22:25:37.643Z,65.96
2022-08-16T22:28:06.906Z,66.31
2022-08-16T22:30:35.199Z,66.03
2022-08-16T22:33:09.769Z,65.39
2022-08-16T22:35:42.816Z,66.23
2022-08-16T22:38:54.813Z,66.03
2022-08-16T22:41:00.463Z,66.24
2022-08-16T22:43:29.905Z,65.70
2022-08-16T22:45:58.234Z,66.58
2022-08-16T22:48:27.795Z,66.51
2022-08-16T22:50:56.192Z,66.55
2022-08-16T22:53:26.983Z,66.43
2022-08-16T22:55:57.234Z,66.66
2022-08-16T22:58:36.148Z,67.12
2022-08-16T23:01:05.909Z,67.91
2022-08-16T23:03:36.733Z,67.33
2022-08-16T23:06:05.791Z,68.26
2022-08-16T23:08:39.427Z,68.53
2022-08-16T23:11:10.562Z,67.84
2022-08-16T23:13:52.459Z,68.13
2022-08-16T23:16:32.411Z,66.94
2022-08-16T23:19:05.355Z,67.20
2022-08-16T23:21:35.058Z,66.92
2022-08-16T23:24:03.268Z,65.37
2022-08-16T23:26:46.135Z,64.21
2022-08-16T23:29:25.386Z,64.35
2022-08-16T23:31:56.663Z,64.90
2022-08-16T23:34:28.394Z,64.09
2022-08-16T23:36:59.230Z,63.83
2022-08-16T23:39:27.745Z,63.93
2022-08-16T23:41:56.033Z,63.31
2022-08-16T23:44:57.209Z,62.86
2022-08-16T23:47:12.692Z,62.93
2022-08-16T23:49:59.291Z,64.06
2022-08-16T23:52:42.320Z,64.69
2022-08-16T23:55:19.104Z,65.69
2022-08-16T23:57:47.515Z,67.71
